Aérodrome :
LOGIN :

S'inscrire | Disclaimer

   EN    FR    IT 

 










Légende :    VFR   VFR Marginal   IFR   IFR Intensif   IFR Très Intensif
Visi : 
Plafond : 
>= 8 km
>= 3000ft
5 à 8 km
1000 à 3000 ft
1500m à 5 km
500 à 1000 ft
800 à 1500m
200 à 500 ft
< 800m
< 200 ft
Symboles :   Orages  Brouillard  Fortes neiges  Fortes précipitations  Vent > 20 kt
SIGMETs :   Divers  Orages  Givrage  Turbulence  Onde Orograph.  Cendres Volcan.






- Altitude de l'aérodrome : 939 ft


LKKB - Kbely Air Base

DERNIER METAR :
  • 152000Z 22009KT CAVOK 08/05 Q1010 NOSIG

METARs EXPIRÉS :
  • 151900Z 21009KT CAVOK 08/05 Q1010 NOSIG
  • 151800Z 23011KT CAVOK 09/05 Q1009 NOSIG

TAF TAF LKKB
Valide du 15 à 18h jusqu'au 16 à 18h UTC


151700Z 1518/1618 20010KT 9999 BKN035
TEMPO 1518/1609 24014KT 7000 RA BKN020
PROB40
TEMPO 1600/1608 5000 BR BKN015
BECMG 1604/1606 15006KT
BECMG 1610/1612 CAVOK



MET'MAP, la Météo Aéronautique d'un coup d'oeil ! - Copyright ORBIFLY Décembre 2007 - Disclaimer

ORBIFLY MET'MAP TEAM :

Programmation & Développement : Alexandra Zaïnal
Sur une idée originale de : Baudouin d'Aumeries
Assistance à la programmation : Marc-Olivier Méhu
Soutien technique & logistique : Manuel Goepfert

Contact : metmap@orbifly.com




SOURCES & CREDITS :

   NOAA